Time;durP1;ratioP1;P1;durP2;ratioP2;P2;SDS_P1;SDS_P2;PMS_P1;PMS_P2;Temp;Humidity;BMP_temperature;BMP_pressure;BME280_temperature;BME280_humidity;BME280_pressure;Samples;Min_cycle;Max_cycle;Signal;HPM_P1;HPM_P2
2022/04/23 00:00:41;;;;;;;6.20;3.28;;;;;;;9.82;61.69;100772.94;5081028;28;20075;-58
2022/04/23 00:03:08;;;;;;;7.32;3.85;;;;;;;9.79;62.17;100770.38;5094752;28;20055;-57
2022/04/23 00:05:38;;;;;;;6.40;3.45;;;;;;;9.79;62.29;100770.38;5095850;28;20055;-57
2022/04/23 00:08:08;;;;;;;7.10;3.25;;;;;;;9.77;61.68;100761.75;5095934;28;20125;-58
2022/04/23 00:10:38;;;;;;;6.35;3.75;;;;;;;9.76;61.25;100760.03;5095869;28;20102;-58
2022/04/23 00:13:07;;;;;;;6.15;2.90;;;;;;;9.75;61.81;100758.31;5087797;28;20087;-58
2022/04/23 00:15:37;;;;;;;6.50;3.00;;;;;;;9.72;62.08;100763.50;5084703;28;20052;-58
2022/04/23 00:18:06;;;;;;;7.10;2.92;;;;;;;9.73;61.91;100760.06;5088415;28;20101;-58
2022/04/23 00:20:35;;;;;;;9.35;3.60;;;;;;;9.74;61.39;100756.59;5091351;28;20044;-57
2022/04/23 00:23:03;;;;;;;6.32;3.10;;;;;;;9.74;62.54;100754.00;5075414;28;20052;-58
2022/04/23 00:25:30;;;;;;;5.28;2.95;;;;;;;9.73;61.60;100750.56;5075578;28;20136;-58
2022/04/23 00:27:59;;;;;;;8.82;3.58;;;;;;;9.70;62.22;100753.16;5075524;28;20058;-58
2022/04/23 00:30:28;;;;;;;8.20;3.97;;;;;;;9.68;62.02;100747.13;5075024;28;20076;-56
2022/04/23 00:32:58;;;;;;;9.77;3.70;;;;;;;9.67;61.69;100744.56;5075137;28;20048;-58
2022/04/23 00:35:26;;;;;;;6.05;3.47;;;;;;;9.67;62.19;100744.56;5081943;28;20373;-58
2022/04/23 00:37:55;;;;;;;5.55;3.40;;;;;;;9.65;61.64;100735.94;5078141;28;20052;-58
2022/04/23 00:40:24;;;;;;;4.63;2.90;;;;;;;9.65;62.04;100741.13;5074979;28;20469;-57
2022/04/23 00:42:56;;;;;;;5.80;3.33;;;;;;;9.64;62.17;100744.56;5074910;28;20056;-58
2022/04/23 00:45:25;;;;;;;5.47;2.95;;;;;;;9.64;62.46;100737.66;5097950;28;20044;-58
2022/04/23 00:47:55;;;;;;;7.15;3.60;;;;;;;9.66;61.80;100735.06;5109203;28;20397;-58
2022/04/23 00:50:25;;;;;;;5.82;3.38;;;;;;;9.66;62.19;100741.09;5073648;28;20071;-58
2022/04/23 00:53:00;;;;;;;8.35;3.17;;;;;;;9.65;61.97;100735.94;5083133;28;20455;-58
2022/04/23 00:55:32;;;;;;;7.10;3.28;;;;;;;9.64;61.64;100731.63;5074405;28;20063;-58
2022/04/23 00:58:00;;;;;;;5.63;3.40;;;;;;;9.62;61.86;100729.03;5074405;28;20049;-58
2022/04/23 01:00:28;;;;;;;7.88;3.80;;;;;;;9.61;62.11;100729.06;5074196;28;20060;-57
2022/04/23 01:03:08;;;;;;;7.55;4.40;;;;;;;9.62;61.86;100728.19;5076961;28;20063;-57
2022/04/23 01:05:36;;;;;;;11.32;4.72;;;;;;;9.60;62.28;100724.75;5094969;28;20071;-58
2022/04/23 01:08:04;;;;;;;10.38;4.55;;;;;;;9.60;61.90;100717.84;5094766;28;20059;-58
2022/04/23 01:10:32;;;;;;;6.90;3.28;;;;;;;9.59;61.75;100721.28;5086363;28;20049;-57
2022/04/23 01:12:59;;;;;;;5.10;3.00;;;;;;;9.61;61.96;100713.53;5080016;28;20059;-58
2022/04/23 01:15:27;;;;;;;7.00;3.00;;;;;;;9.57;61.91;100717.00;5082462;28;20060;-57
2022/04/23 01:17:55;;;;;;;5.80;2.85;;;;;;;9.52;61.63;100723.91;5089842;28;20056;-58
2022/04/23 01:20:28;;;;;;;6.75;3.20;;;;;;;9.54;61.41;100717.00;5082232;28;20484;-57
2022/04/23 01:22:55;;;;;;;4.82;3.00;;;;;;;9.53;61.82;100718.75;5083596;28;20656;-58
2022/04/23 01:25:26;;;;;;;4.93;2.67;;;;;;;9.53;61.36;100721.34;5083434;28;20060;-58
2022/04/23 01:27:54;;;;;;;6.68;3.25;;;;;;;9.55;61.82;100708.38;5080505;28;20127;-58
2022/04/23 01:30:22;;;;;;;5.03;2.83;;;;;;;9.54;61.77;100717.00;5081900;28;20048;-58
2022/04/23 01:32:50;;;;;;;4.28;2.45;;;;;;;9.53;61.43;100705.81;5079530;28;20131;-58
2022/04/23 01:35:18;;;;;;;5.13;2.30;;;;;;;9.53;61.94;100707.53;5084565;28;20040;-56
2022/04/23 01:37:47;;;;;;;5.15;2.55;;;;;;;9.54;61.15;100709.25;5081806;28;20051;-58
2022/04/23 01:40:14;;;;;;;4.75;2.42;;;;;;;9.51;61.69;100707.53;5081475;28;20372;-58
2022/04/23 01:42:42;;;;;;;5.38;2.33;;;;;;;9.49;61.27;100704.97;5081103;28;20389;-58
2022/04/23 01:45:10;;;;;;;4.95;2.35;;;;;;;9.47;61.98;100701.53;5082094;28;20071;-58
2022/04/23 01:47:38;;;;;;;6.25;3.47;;;;;;;9.47;62.17;100701.53;5081109;28;20142;-58
2022/04/23 01:50:15;;;;;;;5.80;2.50;;;;;;;9.48;61.68;100699.78;5076941;28;20048;-58
2022/04/23 01:52:43;;;;;;;4.80;2.80;;;;;;;9.47;61.67;100700.66;5072131;28;20501;-58
2022/04/23 01:55:12;;;;;;;5.80;2.83;;;;;;;9.47;61.69;100701.53;5078655;28;20063;-57
2022/04/23 01:57:39;;;;;;;8.32;3.20;;;;;;;9.46;61.74;100699.78;5080888;28;20048;-58
2022/04/23 02:00:10;;;;;;;5.95;2.40;;;;;;;9.46;62.16;100694.63;5083924;28;20055;-58
2022/04/23 02:02:40;;;;;;;6.40;3.22;;;;;;;9.45;62.02;100700.66;5081028;28;20056;-59
2022/04/23 02:05:10;;;;;;;5.97;2.60;;;;;;;9.44;62.03;100691.19;5080871;28;20083;-58
2022/04/23 02:07:38;;;;;;;6.85;2.85;;;;;;;9.43;61.54;100694.63;5077529;28;20056;-57
2022/04/23 02:10:08;;;;;;;5.00;2.83;;;;;;;9.42;61.93;100687.75;5079934;28;20049;-57
2022/04/23 02:12:38;;;;;;;6.78;3.13;;;;;;;9.40;61.85;100689.47;5076371;28;20056;-57
2022/04/23 02:15:08;;;;;;;5.68;3.22;;;;;;;9.38;61.85;100682.59;5078787;28;20048;-57
2022/04/23 02:17:37;;;;;;;5.25;3.17;;;;;;;9.35;62.26;100679.97;5079770;28;20134;-57
2022/04/23 02:20:08;;;;;;;9.15;3.30;;;;;;;9.31;61.98;100667.94;5077454;28;20048;-55
2022/04/23 02:22:38;;;;;;;7.35;2.72;;;;;;;9.30;61.91;100669.66;5078039;28;20055;-57
2022/04/23 02:25:08;;;;;;;7.93;3.05;;;;;;;9.30;62.10;100667.06;5079941;28;20067;-56
2022/04/23 02:27:45;;;;;;;6.38;3.00;;;;;;;9.32;61.66;100670.50;5081180;28;20068;-57
2022/04/23 02:30:14;;;;;;;6.97;2.90;;;;;;;9.32;61.95;100675.69;5073443;28;20052;-58
2022/04/23 02:32:43;;;;;;;4.97;3.28;;;;;;;9.32;61.13;100670.50;5082827;28;20056;-58
2022/04/23 02:35:10;;;;;;;5.15;3.35;;;;;;;9.29;61.59;100672.25;5078893;28;20055;-58
2022/04/23 02:37:42;;;;;;;4.53;2.47;;;;;;;9.26;62.12;100674.84;5074451;28;20044;-58
2022/04/23 02:40:10;;;;;;;9.30;2.92;;;;;;;9.26;61.22;100669.69;5076775;28;20143;-58
2022/04/23 02:42:38;;;;;;;8.55;3.92;;;;;;;9.24;61.53;100661.94;5082103;28;20052;-58
2022/04/23 02:45:09;;;;;;;9.45;3.55;;;;;;;9.22;61.19;100662.81;5096463;28;20101;-58
2022/04/23 02:47:47;;;;;;;7.45;3.38;;;;;;;9.20;61.01;100660.22;5080357;28;20051;-56
2022/04/23 02:50:16;;;;;;;6.82;3.50;;;;;;;9.19;61.43;100663.66;5085563;28;20048;-58
2022/04/23 02:52:44;;;;;;;7.47;3.33;;;;;;;9.17;61.72;100655.06;5077601;28;20518;-58
2022/04/23 02:55:14;;;;;;;8.15;3.47;;;;;;;9.15;61.88;100646.44;5077988;28;20051;-58
2022/04/23 02:57:42;;;;;;;6.07;3.50;;;;;;;9.13;61.44;100650.75;5072400;28;20056;-57
2022/04/23 03:00:16;;;;;;;7.45;3.88;;;;;;;9.11;62.11;100649.91;5072585;28;20044;-57
2022/04/23 03:02:45;;;;;;;6.60;3.33;;;;;;;9.08;61.30;100650.78;5071977;28;20044;-58
2022/04/23 03:05:14;;;;;;;6.65;3.88;;;;;;;9.07;61.50;100648.22;5079329;28;20376;-57
2022/04/23 03:07:44;;;;;;;7.45;3.80;;;;;;;9.07;61.88;100649.06;5079286;28;20079;-58
2022/04/23 03:10:15;;;;;;;6.60;3.70;;;;;;;9.08;61.88;100645.63;5086843;28;20466;-58
2022/04/23 03:12:44;;;;;;;6.20;3.78;;;;;;;9.09;61.98;100651.66;5083993;28;20059;-58
2022/04/23 03:15:16;;;;;;;9.50;3.83;;;;;;;9.12;61.27;100657.66;5079539;28;20163;-58
2022/04/23 03:17:45;;;;;;;6.70;3.72;;;;;;;9.11;61.72;100655.94;5086379;28;20392;-58
2022/04/23 03:20:13;;;;;;;6.82;4.55;;;;;;;9.12;61.55;100659.41;5078811;28;20059;-55
2022/04/23 03:22:42;;;;;;;8.38;4.03;;;;;;;9.13;61.51;100653.34;5071968;28;20048;-58
2022/04/23 03:25:12;;;;;;;6.72;3.78;;;;;;;9.12;61.34;100654.22;5072622;28;20057;-56
2022/04/23 03:27:39;;;;;;;10.23;4.25;;;;;;;9.09;61.43;100649.91;5072410;28;20052;-55
2022/04/23 03:30:06;;;;;;;9.40;4.20;;;;;;;9.08;61.76;100647.34;5072528;28;20063;-56
2022/04/23 03:32:35;;;;;;;10.60;4.45;;;;;;;9.08;61.98;100655.97;5076267;28;20048;-56
2022/04/23 03:35:05;;;;;;;10.25;3.83;;;;;;;9.09;61.57;100646.47;5079646;28;20055;-57
2022/04/23 03:37:33;;;;;;;10.82;4.40;;;;;;;9.05;61.85;100644.78;5078689;28;20048;-57
2022/04/23 03:40:00;;;;;;;10.48;4.70;;;;;;;9.03;61.89;100646.50;5081917;28;20048;-58
2022/04/23 03:42:26;;;;;;;5.93;3.92;;;;;;;9.02;61.64;100642.19;5081243;28;20053;-57
2022/04/23 03:44:53;;;;;;;9.05;4.40;;;;;;;8.99;61.76;100649.97;5099693;28;20048;-58
2022/04/23 03:47:23;;;;;;;10.15;5.20;;;;;;;8.97;61.65;100642.22;5084150;28;20475;-58
2022/04/23 03:49:53;;;;;;;9.60;4.38;;;;;;;8.98;62.04;100637.91;5074894;28;20557;-58
2022/04/23 03:52:21;;;;;;;7.57;4.32;;;;;;;8.96;62.10;100639.63;5079155;28;20052;-57
2022/04/23 03:54:49;;;;;;;14.43;5.13;;;;;;;8.96;61.89;100647.38;5082225;28;20044;-57
2022/04/23 03:57:17;;;;;;;9.30;4.10;;;;;;;8.98;61.86;100640.50;5080835;28;20056;-57
2022/04/23 03:59:44;;;;;;;10.38;4.70;;;;;;;8.99;62.31;100639.63;5085773;28;20052;-58
2022/04/23 04:02:12;;;;;;;7.28;4.68;;;;;;;8.99;62.30;100630.13;5083396;28;20052;-58
2022/04/23 04:04:41;;;;;;;11.25;4.45;;;;;;;9.02;62.06;100624.09;5081335;28;20048;-58
2022/04/23 04:07:10;;;;;;;10.52;3.92;;;;;;;9.06;62.34;100633.56;5081701;28;20051;-57
2022/04/23 04:09:38;;;;;;;8.77;3.90;;;;;;;9.08;62.15;100634.41;5084918;28;20469;-58
2022/04/23 04:12:06;;;;;;;8.85;4.25;;;;;;;9.08;61.67;100630.09;5083871;28;20047;-58
2022/04/23 04:14:36;;;;;;;7.47;3.58;;;;;;;9.12;61.97;100630.94;5082261;28;20455;-58
2022/04/23 04:17:05;;;;;;;8.23;4.10;;;;;;;9.18;61.35;100630.91;5083158;28;20416;-58
2022/04/23 04:19:34;;;;;;;7.32;3.75;;;;;;;9.28;61.91;100642.94;5081034;28;20076;-58
2022/04/23 04:22:03;;;;;;;9.40;4.60;;;;;;;9.37;61.12;100642.06;5082323;28;20063;-58
2022/04/23 04:24:31;;;;;;;10.18;5.70;;;;;;;9.48;61.51;100641.13;5080565;28;20122;-57
2022/04/23 04:27:00;;;;;;;8.23;4.85;;;;;;;9.61;61.43;100636.75;5080630;28;20052;-58
2022/04/23 04:29:29;;;;;;;11.90;4.47;;;;;;;9.74;60.55;100632.34;5081050;28;20129;-58
2022/04/23 04:31:57;;;;;;;9.50;4.90;;;;;;;9.91;60.72;100638.28;5079987;28;20044;-58
2022/04/23 04:34:29;;;;;;;8.95;4.57;;;;;;;10.07;60.22;100645.06;5083311;28;20481;-57
2022/04/23 04:37:06;;;;;;;8.35;5.00;;;;;;;10.26;59.28;100644.94;5079805;28;20080;-57
2022/04/23 04:39:36;;;;;;;9.30;4.40;;;;;;;10.47;59.12;100636.16;5074079;28;20044;-58
2022/04/23 04:42:04;;;;;;;13.88;4.82;;;;;;;10.60;58.97;100637.75;5073751;28;20048;-58
2022/04/23 04:44:32;;;;;;;9.45;4.63;;;;;;;10.75;58.96;100633.25;5084127;28;20388;-56
2022/04/23 04:47:00;;;;;;;9.13;5.22;;;;;;;10.94;58.23;100635.66;5078842;28;20049;-58
2022/04/23 04:49:30;;;;;;;8.60;4.53;;;;;;;11.12;57.67;100630.25;5084255;28;20071;-58
2022/04/23 04:51:58;;;;;;;8.65;4.18;;;;;;;11.29;57.26;100630.91;5084491;28;20044;-59
2022/04/23 04:54:25;;;;;;;11.40;4.75;;;;;;;11.49;56.69;100627.19;5084930;28;20372;-58
2022/04/23 04:56:56;;;;;;;8.93;3.83;;;;;;;11.70;56.32;100616.50;5082376;28;20063;-58
2022/04/23 04:59:23;;;;;;;9.88;3.97;;;;;;;11.92;55.46;100612.72;5084994;28;20043;-57
2022/04/23 05:01:51;;;;;;;6.97;3.65;;;;;;;12.14;54.86;100607.19;5080640;28;20090;-57
2022/04/23 05:04:20;;;;;;;9.40;3.70;;;;;;;12.35;54.08;100605.97;5093239;28;20109;-57
2022/04/23 05:06:48;;;;;;;7.63;3.65;;;;;;;12.57;53.68;100608.19;5093783;28;20449;-57
2022/04/23 05:09:15;;;;;;;6.32;3.58;;;;;;;12.77;53.02;100601.72;5095178;28;20060;-56
2022/04/23 05:11:43;;;;;;;6.88;3.53;;;;;;;12.96;52.57;100603.94;5086359;28;20051;-57
2022/04/23 05:14:11;;;;;;;7.82;4.15;;;;;;;13.18;52.08;100601.78;5076866;28;20358;-58
2022/04/23 05:16:39;;;;;;;5.88;3.83;;;;;;;13.40;51.26;100599.56;5075269;28;20064;-58
2022/04/23 05:19:09;;;;;;;8.32;3.40;;;;;;;13.60;50.79;100598.31;5094205;28;20044;-58
2022/04/23 05:21:37;;;;;;;8.35;3.50;;;;;;;13.83;50.46;100591.66;5080605;28;20055;-58
2022/04/23 05:24:06;;;;;;;5.85;3.15;;;;;;;14.00;49.38;100592.97;5082949;28;20044;-58
2022/04/23 05:26:34;;;;;;;6.70;3.33;;;;;;;14.20;49.12;100594.22;5078687;28;20106;-56
2022/04/23 05:29:00;;;;;;;10.50;3.47;;;;;;;14.39;48.21;100589.38;5077431;28;20048;-57
2022/04/23 05:31:28;;;;;;;6.13;3.35;;;;;;;14.57;47.90;100588.09;5072669;28;20060;-58
2022/04/23 05:33:54;;;;;;;8.68;3.50;;;;;;;14.76;47.31;100591.03;5088796;28;20496;-58
2022/04/23 05:36:21;;;;;;;6.45;3.55;;;;;;;14.94;46.94;100590.53;5085535;28;20531;-57
2022/04/23 05:38:47;;;;;;;8.32;3.45;;;;;;;15.12;46.64;100590.00;5071328;28;20049;-57
2022/04/23 05:41:14;;;;;;;7.70;3.55;;;;;;;15.31;46.06;100590.31;5070642;28;20063;-58
2022/04/23 05:43:41;;;;;;;8.60;3.55;;;;;;;15.51;45.61;100587.09;5071119;28;20114;-57
2022/04/23 05:46:07;;;;;;;9.15;3.40;;;;;;;15.69;45.37;100591.78;5107982;28;20650;-57
2022/04/23 05:48:37;;;;;;;7.65;3.65;;;;;;;15.86;44.47;100585.16;5113598;28;20526;-58
2022/04/23 05:51:04;;;;;;;8.02;3.50;;;;;;;16.05;44.14;100594.13;5114461;28;20082;-56
2022/04/23 05:53:30;;;;;;;4.78;3.03;;;;;;;16.24;43.84;100589.16;5114457;28;20052;-58
2022/04/23 05:55:57;;;;;;;5.65;3.40;;;;;;;16.42;43.51;100586.75;5114004;28;20058;-58
2022/04/23 05:58:23;;;;;;;5.65;3.13;;;;;;;16.56;42.92;100596.72;5114218;28;20052;-58
2022/04/23 06:00:51;;;;;;;5.28;3.35;;;;;;;16.71;42.50;100593.63;5114085;28;20072;-57
2022/04/23 06:03:17;;;;;;;4.82;2.78;;;;;;;16.89;42.47;100593.88;5102628;28;20375;-58
2022/04/23 06:05:45;;;;;;;9.07;3.40;;;;;;;17.07;41.54;100592.31;5073404;28;20052;-58
2022/04/23 06:08:12;;;;;;;6.45;3.65;;;;;;;17.20;41.20;100588.34;5072992;28;20052;-58
2022/04/23 06:10:38;;;;;;;8.43;3.65;;;;;;;17.33;40.99;100589.59;5073395;28;20048;-58
2022/04/23 06:13:07;;;;;;;5.18;3.45;;;;;;;17.46;40.58;100590.81;5102473;28;20070;-58
2022/04/23 06:15:33;;;;;;;6.45;3.53;;;;;;;17.60;39.94;100583.25;5114159;28;20150;-58
2022/04/23 06:18:00;;;;;;;7.90;3.20;;;;;;;17.74;39.55;100580.16;5095251;28;20064;-57
2022/04/23 06:20:26;;;;;;;8.93;3.88;;;;;;;17.86;39.22;100574.41;5073095;28;20052;-55
2022/04/23 06:22:54;;;;;;;5.80;3.60;;;;;;;18.02;39.01;100579.00;5072257;28;20048;-57
2022/04/23 06:25:21;;;;;;;18.98;4.15;;;;;;;18.17;38.66;100573.13;5071729;28;20048;-56
2022/04/23 06:27:47;;;;;;;6.18;3.45;;;;;;;18.32;38.46;100576.88;5072984;28;20067;-58
2022/04/23 06:30:15;;;;;;;8.05;3.30;;;;;;;18.47;38.13;100577.06;5089608;28;20080;-58
2022/04/23 06:32:42;;;;;;;6.95;2.97;;;;;;;18.64;37.76;100581.63;5090510;28;20036;-58
2022/04/23 06:35:09;;;;;;;5.18;3.30;;;;;;;18.80;36.84;100580.03;5084579;28;20484;-58
2022/04/23 06:37:40;;;;;;;5.55;3.20;;;;;;;18.93;36.91;100585.59;5077390;28;20074;-56
2022/04/23 06:40:10;;;;;;;8.60;3.17;;;;;;;19.11;36.49;100578.63;5073364;28;20087;-57
2022/04/23 06:42:37;;;;;;;5.95;3.33;;;;;;;19.26;36.02;100575.31;5072682;28;20105;-54
2022/04/23 06:45:04;;;;;;;5.70;3.55;;;;;;;19.38;35.42;100572.13;5090931;28;20472;-56
2022/04/23 06:47:31;;;;;;;6.53;3.17;;;;;;;19.46;35.10;100574.38;5113418;28;20396;-58
2022/04/23 06:49:59;;;;;;;6.65;3.10;;;;;;;19.60;34.83;100566.72;5113739;28;20051;-58
2022/04/23 06:52:25;;;;;;;5.55;2.95;;;;;;;19.75;34.77;100559.84;5087251;28;20495;-58
2022/04/23 06:54:54;;;;;;;9.57;3.17;;;;;;;19.90;34.13;100563.53;5108864;28;20078;-59
2022/04/23 06:57:23;;;;;;;5.80;3.17;;;;;;;19.97;33.49;100557.88;5113551;28;20551;-58
2022/04/23 06:59:50;;;;;;;5.72;3.00;;;;;;;20.07;33.38;100561.75;5105398;28;20101;-57
2022/04/23 07:02:17;;;;;;;5.82;3.58;;;;;;;20.20;33.35;100566.38;5113990;28;20051;-57
2022/04/23 07:04:43;;;;;;;5.70;3.03;;;;;;;20.33;33.20;100562.22;5110840;28;20055;-58
2022/04/23 07:07:11;;;;;;;5.07;2.97;;;;;;;20.42;32.78;100557.38;5113556;28;20051;-58
2022/04/23 07:09:37;;;;;;;7.43;2.97;;;;;;;20.56;32.57;100564.53;5105599;28;20051;-58
2022/04/23 07:12:05;;;;;;;10.82;3.70;;;;;;;20.66;32.29;100557.84;5113662;28;20048;-58
2022/04/23 07:14:33;;;;;;;5.22;3.10;;;;;;;20.74;32.14;100558.28;5097828;28;20056;-58
2022/04/23 07:16:59;;;;;;;4.10;3.22;;;;;;;20.81;31.76;100558.84;5081850;28;20582;-58
2022/04/23 07:19:26;;;;;;;3.88;2.75;;;;;;;20.91;31.58;100560.06;5072972;28;20056;-58
2022/04/23 07:21:52;;;;;;;5.03;3.08;;;;;;;21.00;31.21;100563.97;5081134;28;20480;-58
2022/04/23 07:24:19;;;;;;;7.25;3.72;;;;;;;21.05;30.92;100562.78;5092488;28;20055;-58
2022/04/23 07:26:46;;;;;;;5.60;3.25;;;;;;;21.07;30.64;100565.34;5091929;28;20059;-59
2022/04/23 07:29:13;;;;;;;4.82;2.90;;;;;;;21.13;30.57;100559.72;5094746;28;20102;-58
2022/04/23 07:31:41;;;;;;;5.70;3.15;;;;;;;21.20;30.27;100566.38;5096628;28;20044;-58
2022/04/23 07:39:36;;;;;;;7.25;3.65;;;;;;;21.37;29.74;100558.44;5114618;28;20192;-58
2022/04/23 07:42:03;;;;;;;5.57;3.58;;;;;;;21.42;29.48;100566.94;5117467;28;20131;-58
2022/04/23 07:44:29;;;;;;;9.50;3.35;;;;;;;21.49;29.66;100558.69;5115735;28;20051;-58
2022/04/23 07:46:57;;;;;;;4.10;3.10;;;;;;;21.57;29.12;100564.38;5107944;28;20051;-58
2022/04/23 07:49:24;;;;;;;7.13;3.45;;;;;;;21.60;29.65;100557.13;5095713;28;20044;-58
2022/04/23 07:51:50;;;;;;;4.15;3.17;;;;;;;21.72;29.30;100558.22;5107465;28;20044;-58
2022/04/23 07:54:17;;;;;;;7.53;3.65;;;;;;;21.81;28.98;100557.69;5106643;28;20047;-59
2022/04/23 07:56:44;;;;;;;5.38;3.05;;;;;;;21.92;28.96;100555.28;5110382;28;20055;-58
2022/04/23 07:59:11;;;;;;;4.38;3.38;;;;;;;22.01;28.66;100554.75;5107054;28;20055;-58
2022/04/23 08:01:37;;;;;;;7.72;3.38;;;;;;;22.10;28.65;100557.81;5096902;28;20056;-60
2022/04/23 08:04:06;;;;;;;5.38;3.00;;;;;;;22.17;28.41;100559.16;5091584;28;20048;-62
2022/04/23 08:06:33;;;;;;;5.40;2.90;;;;;;;22.22;28.47;100557.09;5086086;28;20052;-57
2022/04/23 08:09:00;;;;;;;4.95;3.08;;;;;;;22.25;28.20;100560.41;5095238;28;20059;-57
2022/04/23 08:11:27;;;;;;;5.07;3.55;;;;;;;22.26;28.17;100561.25;5106475;28;20051;-59
2022/04/23 08:13:53;;;;;;;4.10;3.17;;;;;;;22.29;28.02;100558.41;5101316;28;20063;-58
2022/04/23 08:16:20;;;;;;;7.25;3.00;;;;;;;22.34;28.35;100557.19;5096859;28;20052;-60
2022/04/23 08:18:46;;;;;;;4.13;3.15;;;;;;;22.45;28.32;100553.94;5090843;28;20068;-60
2022/04/23 08:21:14;;;;;;;5.50;3.13;;;;;;;22.57;28.25;100555.84;5097963;28;20484;-60
2022/04/23 08:23:41;;;;;;;5.50;3.10;;;;;;;22.67;27.99;100543.75;5105681;28;20456;-60
2022/04/23 08:26:07;;;;;;;5.47;2.90;;;;;;;22.67;27.87;100553.47;5097885;28;20470;-59
2022/04/23 08:31:18;;;;;;;8.10;3.53;;;;;;;22.72;28.02;100550.56;5101192;28;20486;-61
2022/04/23 08:34:00;;;;;;;9.02;3.42;;;;;;;22.77;28.09;100553.75;5102395;28;20044;-60
2022/04/23 08:36:30;;;;;;;6.55;3.47;;;;;;;22.82;28.08;100549.06;5096794;28;20063;-61
2022/04/23 08:38:57;;;;;;;6.10;3.45;;;;;;;22.84;28.07;100549.81;5109340;28;20081;-61
2022/04/23 08:41:28;;;;;;;6.18;3.33;;;;;;;22.86;28.30;100553.22;5105433;28;20058;-61
2022/04/23 08:43:56;;;;;;;5.00;3.30;;;;;;;22.84;28.45;100552.47;5102003;28;20460;-61
2022/04/23 08:46:24;;;;;;;6.80;3.75;;;;;;;22.82;28.71;100557.84;5112139;28;20055;-60
2022/04/23 08:49:01;;;;;;;7.38;3.60;;;;;;;22.87;28.86;100550.47;5100487;28;20134;-61
2022/04/23 08:51:34;;;;;;;6.03;3.40;;;;;;;22.92;28.84;100548.44;5104695;28;20052;-63
2022/04/23 08:54:05;;;;;;;9.82;3.83;;;;;;;22.98;28.72;100536.63;5110424;28;20053;-64
2022/04/23 08:56:32;;;;;;;9.25;3.65;;;;;;;23.03;28.77;100531.03;5098093;28;20112;-64
2022/04/23 08:59:00;;;;;;;8.52;3.60;;;;;;;23.00;28.77;100540.00;5108888;28;20088;-62
2022/04/23 09:01:26;;;;;;;8.85;3.50;;;;;;;22.99;28.58;100538.31;5105614;28;20063;-62
2022/04/23 09:03:53;;;;;;;14.50;3.80;;;;;;;22.98;28.59;100536.63;5100666;28;20768;-62
2022/04/23 09:06:19;;;;;;;13.35;3.47;;;;;;;22.98;28.77;100532.19;5108641;28;20489;-62
2022/04/23 09:09:10;;;;;;;7.75;3.53;;;;;;;23.03;28.64;100529.25;5087878;28;20087;-62
2022/04/23 09:11:37;;;;;;;5.75;3.13;;;;;;;23.07;28.73;100535.19;5099746;28;20051;-62
2022/04/23 09:14:06;;;;;;;22.95;4.45;;;;;;;23.10;28.73;100525.25;5098522;28;20067;-60
2022/04/23 09:25:06;;;;;;;10.48;3.25;;;;;;;22.81;28.64;100523.59;5094762;28;20402;-61
2022/04/23 09:27:34;;;;;;;3.33;2.33;;;;;;;22.73;28.92;100534.59;5081850;28;20114;-61
2022/04/23 09:30:02;;;;;;;4.43;2.15;;;;;;;22.65;29.04;100528.94;5074776;28;20163;-61
2022/04/23 09:32:28;;;;;;;4.35;2.20;;;;;;;22.65;28.90;100524.50;5074328;28;20052;-62
2022/04/23 09:35:09;;;;;;;7.28;2.20;;;;;;;22.62;28.85;100529.97;5077070;28;20056;-62
2022/04/23 09:40:23;;;;;;;5.95;2.60;;;;;;;22.55;29.38;100527.81;5094108;28;20056;-62
2022/04/23 09:42:58;;;;;;;3.28;2.03;;;;;;;22.53;29.20;100520.00;5093621;28;20048;-62
2022/04/23 09:45:26;;;;;;;6.20;2.30;;;;;;;22.49;29.60;100523.75;5097496;28;20052;-62
2022/04/23 09:47:53;;;;;;;4.30;1.88;;;;;;;22.52;29.80;100515.66;5113160;28;20059;-61
2022/04/23 09:50:20;;;;;;;3.97;2.10;;;;;;;22.59;29.81;100516.97;5113332;28;20047;-61
2022/04/23 09:52:46;;;;;;;7.38;2.00;;;;;;;22.65;29.63;100524.50;5112546;28;20372;-61
2022/04/23 09:55:17;;;;;;;6.25;2.08;;;;;;;22.75;29.54;100518.66;5113308;28;20134;-61
2022/04/23 09:57:46;;;;;;;12.52;1.95;;;;;;;22.77;29.67;100511.47;5113152;28;20055;-61
2022/04/23 10:00:13;;;;;;;11.82;2.10;;;;;;;22.76;29.52;100510.63;5113250;28;20058;-61
2022/04/23 10:02:42;;;;;;;3.60;1.80;;;;;;;22.72;29.44;100510.91;5096842;28;20070;-61
2022/04/23 10:05:11;;;;;;;7.07;1.77;;;;;;;22.68;29.42;100516.41;5094018;28;20062;-61
2022/04/23 10:07:41;;;;;;;6.05;2.15;;;;;;;22.57;29.23;100515.38;5093989;28;20086;-61
2022/04/23 10:10:12;;;;;;;3.97;1.63;;;;;;;22.34;29.69;100509.66;5093922;28;20048;-61
2022/04/23 10:12:44;;;;;;;5.28;1.85;;;;;;;22.17;29.64;100506.34;5093507;28;20066;-62
2022/04/23 10:15:12;;;;;;;4.60;2.03;;;;;;;22.11;30.02;100506.72;5093650;28;20052;-62
2022/04/23 10:17:41;;;;;;;11.13;1.95;;;;;;;22.03;30.00;100510.69;5093160;28;20458;-61
2022/04/23 10:20:11;;;;;;;6.53;1.70;;;;;;;21.90;30.61;100504.41;5093746;28;20044;-61
2022/04/23 10:22:48;;;;;;;5.63;1.90;;;;;;;21.76;30.48;100506.97;5093857;28;20131;-61
2022/04/23 10:25:24;;;;;;;4.22;1.42;;;;;;;21.64;30.84;100505.91;5093760;28;20055;-61
2022/04/23 10:27:52;;;;;;;18.58;2.60;;;;;;;21.63;30.85;100512.09;5105188;28;20043;-61
2022/04/23 10:30:20;;;;;;;7.57;1.50;;;;;;;21.62;31.02;100514.84;5114188;28;20043;-61
2022/04/23 10:32:46;;;;;;;4.88;1.98;;;;;;;21.67;31.07;100508.34;5105132;28;20040;-61
2022/04/23 10:35:32;;;;;;;3.58;1.63;;;;;;;21.74;30.81;100508.84;5085699;28;20048;-61
2022/04/23 10:38:02;;;;;;;5.03;1.67;;;;;;;21.77;31.11;100503.38;5074568;28;20477;-61
2022/04/23 10:40:36;;;;;;;4.95;1.80;;;;;;;21.76;31.03;100506.97;5073466;28;20054;-62
2022/04/23 10:43:12;;;;;;;7.18;1.85;;;;;;;21.77;31.19;100506.03;5072801;28;20508;-61
2022/04/23 10:45:40;;;;;;;2.50;1.80;;;;;;;21.71;31.42;100504.59;5100696;28;20052;-61
2022/04/23 10:48:29;;;;;;;14.90;2.38;;;;;;;21.60;31.79;100509.66;5113544;28;20059;-61
2022/04/23 10:51:06;;;;;;;2.67;1.60;;;;;;;21.56;31.58;100512.56;5108083;28;20070;-61
2022/04/23 10:53:57;;;;;;;4.00;1.92;;;;;;;21.36;32.08;100514.53;5113492;28;20526;-61
2022/04/23 10:56:26;;;;;;;3.17;1.40;;;;;;;21.24;32.34;100520.47;5113761;28;20399;-61
2022/04/23 10:58:53;;;;;;;2.53;1.45;;;;;;;21.24;32.38;100514.34;5102179;28;20452;-61
2022/04/23 11:01:23;;;;;;;7.15;2.20;;;;;;;21.17;32.48;100516.44;5093204;28;20063;-61
2022/04/23 11:04:12;;;;;;;5.97;1.60;;;;;;;21.06;32.20;100513.56;5094463;28;20048;-61
2022/04/23 11:12:27;;;;;;;5.47;1.65;;;;;;;20.76;32.91;100510.81;5094436;28;20146;-61
2022/04/23 11:14:55;;;;;;;5.80;1.80;;;;;;;20.76;33.06;100502.91;5096579;28;20048;-61
2022/04/23 11:17:25;;;;;;;4.03;1.52;;;;;;;20.73;32.93;100505.69;5091728;28;20045;-62
2022/04/23 11:19:52;;;;;;;11.85;2.00;;;;;;;20.56;33.13;100503.97;5075453;28;20080;-61
2022/04/23 11:22:19;;;;;;;5.15;1.75;;;;;;;20.30;33.35;100520.28;5075609;28;20055;-61
2022/04/23 11:24:47;;;;;;;4.25;1.80;;;;;;;20.17;33.61;100520.88;5075110;28;20141;-61
2022/04/23 11:27:24;;;;;;;4.95;2.08;;;;;;;19.99;33.46;100511.31;5075389;28;20051;-62
2022/04/23 11:29:51;;;;;;;7.03;2.50;;;;;;;19.71;34.18;100521.47;5075285;28;20102;-61
2022/04/23 11:32:26;;;;;;;7.72;2.67;;;;;;;19.52;34.57;100517.13;5076444;28;20052;-61
2022/04/23 11:34:57;;;;;;;7.45;1.98;;;;;;;19.33;34.81;100518.06;5079169;28;20066;-61
2022/04/23 11:37:30;;;;;;;5.20;2.10;;;;;;;19.12;35.40;100517.28;5083123;28;20068;-61
2022/04/23 11:40:08;;;;;;;9.07;2.60;;;;;;;19.03;35.79;100522.97;5076568;28;20048;-62
2022/04/23 11:42:42;;;;;;;4.53;2.20;;;;;;;18.94;35.28;100518.16;5076351;28;20052;-61
2022/04/23 11:45:10;;;;;;;3.70;2.00;;;;;;;18.75;35.48;100516.38;5095305;28;20039;-61
2022/04/23 11:47:39;;;;;;;2.67;1.98;;;;;;;18.63;35.48;100523.94;5116953;28;20067;-61
2022/04/23 11:50:12;;;;;;;4.03;2.00;;;;;;;18.51;35.67;100526.16;5117026;28;20059;-61
2022/04/23 11:52:38;;;;;;;5.63;2.05;;;;;;;18.45;35.70;100518.56;5116856;28;20055;-61
2022/04/23 11:55:06;;;;;;;4.30;2.22;;;;;;;18.37;35.52;100517.19;5116851;28;20051;-61
2022/04/23 11:57:32;;;;;;;5.88;2.20;;;;;;;18.33;35.76;100515.63;5117008;28;20047;-61
2022/04/23 12:00:01;;;;;;;4.32;2.20;;;;;;;18.38;35.91;100514.50;5116819;28;20074;-61